Time;durP1;ratioP1;P1;durP2;ratioP2;P2;SDS_P1;SDS_P2;PMS_P1;PMS_P2;Temp;Humidity;BMP_temperature;BMP_pressure;BME280_temperature;BME280_humidity;BME280_pressure;Samples;Min_cycle;Max_cycle;Signal;HPM_P1;HPM_P2
2022/07/16 00:02:12;;;;;;;7.03;4.95;;;;;;;;;;5049408;28;20405;-73
2022/07/16 00:04:39;;;;;;;7.55;5.18;;;;;;;;;;5048807;28;20889;-72
2022/07/16 00:07:06;;;;;;;11.10;5.10;;;;;;;;;;5048895;28;20498;-72
2022/07/16 00:09:34;;;;;;;4.47;3.20;;;;;;;;;;5048432;28;20452;-74
2022/07/16 00:12:01;;;;;;;6.45;3.45;;;;;;;;;;5048419;28;20762;-73
2022/07/16 00:14:28;;;;;;;6.50;3.13;;;;;;;;;;5048858;28;20421;-72
2022/07/16 00:16:55;;;;;;;5.70;3.10;;;;;;;;;;5048711;28;20420;-72
2022/07/16 00:19:23;;;;;;;4.32;2.90;;;;;;;;;;5048410;28;20405;-74
2022/07/16 00:21:52;;;;;;;4.78;2.90;;;;;;;;;;5048229;28;20433;-72
2022/07/16 00:24:19;;;;;;;4.20;3.05;;;;;;;;;;5047878;28;20444;-73
2022/07/16 00:26:47;;;;;;;5.10;3.38;;;;;;;;;;5048565;28;20466;-73
2022/07/16 00:29:15;;;;;;;5.15;3.63;;;;;;;;;;5048284;28;20448;-73
2022/07/16 00:31:42;;;;;;;5.45;3.30;;;;;;;;;;5048031;28;20501;-73
2022/07/16 00:34:10;;;;;;;5.30;3.05;;;;;;;;;;5047988;28;20899;-73
2022/07/16 00:36:39;;;;;;;4.53;3.00;;;;;;;;;;5048321;28;20428;-72
2022/07/16 00:39:07;;;;;;;4.60;2.88;;;;;;;;;;5048285;28;20551;-73
2022/07/16 00:41:34;;;;;;;5.32;3.40;;;;;;;;;;5047526;28;20448;-73
2022/07/16 00:44:03;;;;;;;6.22;4.53;;;;;;;;;;5048554;28;20418;-73
2022/07/16 00:46:31;;;;;;;6.35;4.63;;;;;;;;;;5048041;28;20421;-72
2022/07/16 00:49:00;;;;;;;6.00;4.90;;;;;;;;;;5048059;28;20425;-72
2022/07/16 00:51:28;;;;;;;6.63;4.38;;;;;;;;;;5046637;28;20443;-72
2022/07/16 00:53:56;;;;;;;5.97;3.65;;;;;;;;;;5047535;28;21025;-71
2022/07/16 00:56:23;;;;;;;6.43;3.83;;;;;;;;;;5047186;28;20426;-71
2022/07/16 00:58:51;;;;;;;6.80;3.60;;;;;;;;;;5047594;28;20463;-74
2022/07/16 01:01:18;;;;;;;5.60;3.70;;;;;;;;;;5047308;28;20752;-73
2022/07/16 01:03:45;;;;;;;5.85;3.80;;;;;;;;;;5047847;28;20418;-73
2022/07/16 01:06:13;;;;;;;7.00;3.10;;;;;;;;;;5047285;28;20435;-73
2022/07/16 01:08:41;;;;;;;6.00;2.97;;;;;;;;;;5047062;28;20440;-73
2022/07/16 01:11:10;;;;;;;6.15;2.50;;;;;;;;;;5046529;28;20424;-73
2022/07/16 01:13:38;;;;;;;5.13;2.40;;;;;;;;;;5047092;28;20409;-73
2022/07/16 01:16:06;;;;;;;5.18;2.85;;;;;;;;;;5047110;28;20816;-73
2022/07/16 01:18:33;;;;;;;5.60;3.10;;;;;;;;;;5047163;28;20897;-73
2022/07/16 01:21:01;;;;;;;8.90;3.10;;;;;;;;;;5046635;28;20483;-73
2022/07/16 01:23:29;;;;;;;6.40;2.53;;;;;;;;;;5047454;28;20832;-71
2022/07/16 01:25:56;;;;;;;5.40;2.47;;;;;;;;;;5046636;28;20512;-73
2022/07/16 01:28:24;;;;;;;6.07;2.80;;;;;;;;;;5047246;28;20433;-73
2022/07/16 01:30:51;;;;;;;6.43;2.70;;;;;;;;;;5046588;28;20429;-72
2022/07/16 01:33:25;;;;;;;3.77;2.80;;;;;;;;;;5047202;28;20975;-72
2022/07/16 01:35:53;;;;;;;4.65;2.60;;;;;;;;;;5047493;28;20422;-74
2022/07/16 01:38:20;;;;;;;4.55;2.50;;;;;;;;;;5046760;28;20424;-74
2022/07/16 01:40:48;;;;;;;6.50;2.30;;;;;;;;;;5046051;28;20432;-74
2022/07/16 01:43:16;;;;;;;5.70;2.47;;;;;;;;;;5046968;28;20516;-72
2022/07/16 01:45:43;;;;;;;3.67;2.10;;;;;;;;;;5046396;28;20778;-72
2022/07/16 01:48:11;;;;;;;4.53;2.40;;;;;;;;;;5046674;28;20425;-72
2022/07/16 01:50:39;;;;;;;5.65;2.15;;;;;;;;;;5046342;28;20421;-72
2022/07/16 01:53:06;;;;;;;3.55;2.22;;;;;;;;;;5046523;28;20514;-71
2022/07/16 01:55:34;;;;;;;3.70;2.30;;;;;;;;;;5045189;28;20421;-74
2022/07/16 01:58:03;;;;;;;3.88;2.30;;;;;;;;;;5046393;28;20486;-72
2022/07/16 02:00:31;;;;;;;4.03;2.30;;;;;;;;;;5046078;28;20421;-74
2022/07/16 02:02:58;;;;;;;4.18;2.42;;;;;;;;;;5046323;28;20405;-74
2022/07/16 02:05:26;;;;;;;4.75;2.63;;;;;;;;;;5045897;28;20745;-74
2022/07/16 02:07:53;;;;;;;4.35;2.28;;;;;;;;;;5046304;28;20425;-73
2022/07/16 02:10:20;;;;;;;7.78;2.92;;;;;;;;;;5045307;28;20436;-74
2022/07/16 02:12:47;;;;;;;5.28;2.60;;;;;;;;;;5046480;28;20436;-74
2022/07/16 02:15:15;;;;;;;6.30;2.60;;;;;;;;;;5045907;28;20949;-74
2022/07/16 02:17:43;;;;;;;3.70;2.60;;;;;;;;;;5046173;28;20436;-73
2022/07/16 02:20:11;;;;;;;5.00;2.50;;;;;;;;;;5045874;28;20424;-73
2022/07/16 02:22:38;;;;;;;4.35;2.38;;;;;;;;;;5046438;28;20417;-74
2022/07/16 02:25:06;;;;;;;4.97;2.40;;;;;;;;;;5045651;28;20428;-74
2022/07/16 02:27:33;;;;;;;4.00;2.20;;;;;;;;;;5046262;28;20417;-74
2022/07/16 02:30:00;;;;;;;4.47;2.38;;;;;;;;;;5045389;28;20823;-74
2022/07/16 02:32:28;;;;;;;6.50;2.60;;;;;;;;;;5046333;28;20409;-74
2022/07/16 02:34:56;;;;;;;7.10;2.20;;;;;;;;;;5045776;28;20897;-74
2022/07/16 02:37:23;;;;;;;3.60;2.20;;;;;;;;;;5046436;28;20475;-74
2022/07/16 02:39:50;;;;;;;6.50;2.80;;;;;;;;;;5046121;28;20489;-75
2022/07/16 02:42:17;;;;;;;4.68;2.50;;;;;;;;;;5046772;28;20485;-73
2022/07/16 02:44:44;;;;;;;3.50;2.35;;;;;;;;;;5046005;28;20417;-74
2022/07/16 02:47:11;;;;;;;3.40;2.40;;;;;;;;;;5046280;28;20421;-74
2022/07/16 02:49:40;;;;;;;5.22;2.65;;;;;;;;;;5046061;28;20440;-74
2022/07/16 02:52:07;;;;;;;5.05;2.50;;;;;;;;;;5045874;28;20846;-73
2022/07/16 02:54:34;;;;;;;3.30;2.40;;;;;;;;;;5045241;28;20417;-73
2022/07/16 02:57:01;;;;;;;5.70;2.50;;;;;;;;;;5045902;28;20525;-71
2022/07/16 02:59:28;;;;;;;4.93;3.05;;;;;;;;;;5045637;28;20431;-74
2022/07/16 03:01:55;;;;;;;4.15;2.88;;;;;;;;;;5045258;28;20428;-73
2022/07/16 03:04:22;;;;;;;4.68;2.90;;;;;;;;;;5045742;28;20891;-74
2022/07/16 03:06:51;;;;;;;4.20;2.93;;;;;;;;;;5045814;28;20421;-73
2022/07/16 03:09:18;;;;;;;5.65;2.80;;;;;;;;;;5045146;28;20445;-73
2022/07/16 03:11:45;;;;;;;3.30;2.80;;;;;;;;;;5045612;28;20730;-74
2022/07/16 03:14:12;;;;;;;4.95;2.90;;;;;;;;;;5047774;28;20424;-73
2022/07/16 03:16:39;;;;;;;3.05;2.55;;;;;;;;;;5049706;28;20417;-73
2022/07/16 03:19:06;;;;;;;3.97;2.70;;;;;;;;;;5049240;28;20869;-74
2022/07/16 03:21:33;;;;;;;2.85;2.58;;;;;;;;;;5049151;28;20924;-73
2022/07/16 03:24:02;;;;;;;3.90;2.65;;;;;;;;;;5049288;28;20428;-73
2022/07/16 03:26:29;;;;;;;3.58;2.53;;;;;;;;;;5048966;28;20513;-74
2022/07/16 03:28:57;;;;;;;3.75;2.75;;;;;;;;;;5049235;28;20433;-73
2022/07/16 03:31:24;;;;;;;4.57;2.42;;;;;;;;;;5049070;28;20413;-74
2022/07/16 03:33:51;;;;;;;3.20;2.70;;;;;;;;;;5049059;28;20757;-73
2022/07/16 03:36:18;;;;;;;3.60;2.45;;;;;;;;;;5048900;28;20501;-73
2022/07/16 03:39:04;;;;;;;3.97;2.67;;;;;;;;;;5049362;28;20519;-73
2022/07/16 03:41:32;;;;;;;3.45;2.50;;;;;;;;;;5048612;28;20492;-74
2022/07/16 03:44:00;;;;;;;4.80;2.40;;;;;;;;;;5048698;28;20773;-74
2022/07/16 03:46:27;;;;;;;3.78;2.85;;;;;;;;;;5048757;28;20417;-74
2022/07/16 03:48:54;;;;;;;5.20;2.70;;;;;;;;;;5049038;28;21045;-74
2022/07/16 03:51:21;;;;;;;3.80;2.95;;;;;;;;;;5048532;28;20508;-73
2022/07/16 03:53:48;;;;;;;4.10;2.67;;;;;;;;;;5048691;28;20809;-74
2022/07/16 03:56:15;;;;;;;3.70;2.50;;;;;;;;;;5048472;28;20456;-72
2022/07/16 03:58:44;;;;;;;3.65;2.30;;;;;;;;;;5049017;28;20417;-72
2022/07/16 04:01:11;;;;;;;4.78;3.00;;;;;;;;;;5048353;28;20524;-72
2022/07/16 04:03:38;;;;;;;4.00;2.60;;;;;;;;;;5048304;28;20421;-73
2022/07/16 04:06:06;;;;;;;3.90;2.50;;;;;;;;;;5048358;28;20425;-73
2022/07/16 04:08:33;;;;;;;4.83;3.00;;;;;;;;;;5048822;28;20443;-72
2022/07/16 04:11:01;;;;;;;3.55;2.65;;;;;;;;;;5047402;28;20425;-73
2022/07/16 04:13:28;;;;;;;4.75;2.60;;;;;;;;;;5048367;28;20849;-74
2022/07/16 04:15:56;;;;;;;4.15;2.80;;;;;;;;;;5048359;28;20413;-72
2022/07/16 04:18:24;;;;;;;4.97;2.80;;;;;;;;;;5048529;28;20413;-73
2022/07/16 04:20:51;;;;;;;3.60;2.78;;;;;;;;;;5047521;28;20432;-74
2022/07/16 04:23:19;;;;;;;5.53;2.80;;;;;;;;;;5048506;28;20409;-74
2022/07/16 04:25:46;;;;;;;4.18;2.85;;;;;;;;;;5046930;28;20425;-74
2022/07/16 04:28:13;;;;;;;4.35;3.03;;;;;;;;;;5048137;28;20872;-74
2022/07/16 04:30:41;;;;;;;3.42;2.83;;;;;;;;;;5047500;28;20451;-74
2022/07/16 04:33:09;;;;;;;5.07;2.70;;;;;;;;;;5048466;28;20413;-74
2022/07/16 04:35:36;;;;;;;4.28;2.78;;;;;;;;;;5047732;28;20944;-74
2022/07/16 04:38:03;;;;;;;5.22;3.00;;;;;;;;;;5047986;28;20476;-74
2022/07/16 04:40:31;;;;;;;5.97;3.15;;;;;;;;;;5047137;28;20856;-74
2022/07/16 04:42:58;;;;;;;3.90;2.95;;;;;;;;;;5048523;28;20429;-74
2022/07/16 04:45:25;;;;;;;4.28;2.90;;;;;;;;;;5047913;28;20405;-74
2022/07/16 04:47:52;;;;;;;4.50;2.95;;;;;;;;;;5048260;28;20889;-74
2022/07/16 04:50:21;;;;;;;4.20;2.90;;;;;;;;;;5047082;28;20486;-74
2022/07/16 04:52:48;;;;;;;4.47;3.08;;;;;;;;;;5048167;28;20421;-74
2022/07/16 04:55:15;;;;;;;5.70;3.40;;;;;;;;;;5046884;28;20427;-74
2022/07/16 04:57:42;;;;;;;5.60;3.33;;;;;;;;;;5048032;28;20424;-74
2022/07/16 05:00:10;;;;;;;3.30;3.00;;;;;;;;;;5047430;28;20409;-74
2022/07/16 05:05:23;;;;;;;4.72;3.70;;;;;;;;;;5047449;28;20405;-73
2022/07/16 05:07:51;;;;;;;5.53;3.90;;;;;;;;;;5047618;28;20417;-72
2022/07/16 05:10:18;;;;;;;3.90;3.55;;;;;;;;;;5046713;28;20433;-72
2022/07/16 05:12:45;;;;;;;4.73;3.30;;;;;;;;;;5047972;28;20433;-74
2022/07/16 05:15:12;;;;;;;4.63;3.50;;;;;;;;;;5047624;28;20414;-74
2022/07/16 05:17:39;;;;;;;4.50;3.60;;;;;;;;;;5047631;28;20834;-74
2022/07/16 05:20:07;;;;;;;3.60;3.20;;;;;;;;;;5046946;28;20423;-73
2022/07/16 05:22:35;;;;;;;4.77;3.40;;;;;;;;;;5047267;28;20759;-72
2022/07/16 05:25:02;;;;;;;6.25;3.72;;;;;;;;;;5046486;28;20428;-73
2022/07/16 05:27:30;;;;;;;4.17;3.20;;;;;;;;;;5047792;28;20902;-72
2022/07/16 05:29:57;;;;;;;4.90;3.10;;;;;;;;;;5047202;28;20549;-73
2022/07/16 05:32:24;;;;;;;3.55;3.25;;;;;;;;;;5047351;28;20487;-73
2022/07/16 05:34:51;;;;;;;4.22;3.50;;;;;;;;;;5046922;28;20417;-73
2022/07/16 05:37:18;;;;;;;3.90;3.50;;;;;;;;;;5046662;28;20413;-73
2022/07/16 05:39:46;;;;;;;3.30;3.00;;;;;;;;;;5046565;28;20421;-72
2022/07/16 05:42:13;;;;;;;5.25;3.40;;;;;;;;;;5046807;28;20436;-74
2022/07/16 05:44:41;;;;;;;4.07;3.15;;;;;;;;;;5046966;28;20988;-72
2022/07/16 05:47:08;;;;;;;4.20;3.22;;;;;;;;;;5047211;28;20417;-72
2022/07/16 05:49:35;;;;;;;4.30;3.30;;;;;;;;;;5047619;28;20429;-71
2022/07/16 05:52:02;;;;;;;4.75;3.50;;;;;;;;;;5046868;28;20513;-73
2022/07/16 05:54:29;;;;;;;4.47;3.10;;;;;;;;;;5046475;28;20421;-72
2022/07/16 05:56:58;;;;;;;4.15;3.15;;;;;;;;;;5047054;28;20417;-72
2022/07/16 05:59:25;;;;;;;3.50;3.20;;;;;;;;;;5046632;28;20413;-72
2022/07/16 06:01:52;;;;;;;4.75;3.28;;;;;;;;;;5061125;28;20890;-72
2022/07/16 06:04:19;;;;;;;5.40;3.35;;;;;;;;;;5066528;28;20408;-73
2022/07/16 06:06:46;;;;;;;5.95;3.30;;;;;;;;;;5066728;28;20523;-72
2022/07/16 06:09:14;;;;;;;4.63;3.30;;;;;;;;;;5066317;28;20423;-72
2022/07/16 06:11:41;;;;;;;6.15;3.70;;;;;;;;;;5066105;28;20928;-72
2022/07/16 06:14:10;;;;;;;4.07;3.20;;;;;;;;;;5066258;28;20438;-72
2022/07/16 06:16:37;;;;;;;3.80;3.30;;;;;;;;;;5066369;28;20420;-72
2022/07/16 06:19:04;;;;;;;4.38;3.30;;;;;;;;;;5066332;28;20434;-72
2022/07/16 06:21:31;;;;;;;3.70;2.70;;;;;;;;;;5065963;28;20414;-73
2022/07/16 06:23:58;;;;;;;5.25;3.25;;;;;;;;;;5066406;28;20459;-72
2022/07/16 06:26:25;;;;;;;4.18;2.88;;;;;;;;;;5065931;28;20432;-72
2022/07/16 06:28:52;;;;;;;4.50;2.95;;;;;;;;;;5066475;28;20884;-72
2022/07/16 06:31:21;;;;;;;5.80;2.90;;;;;;;;;;5066200;28;20427;-72
2022/07/16 06:33:48;;;;;;;3.80;2.93;;;;;;;;;;5066229;28;20422;-72
2022/07/16 06:36:15;;;;;;;4.15;2.70;;;;;;;;;;5066216;28;20419;-72
2022/07/16 06:38:42;;;;;;;5.90;2.60;;;;;;;;;;5066201;28;20483;-72
2022/07/16 06:41:09;;;;;;;3.60;2.40;;;;;;;;;;5065570;28;20407;-72
2022/07/16 06:43:36;;;;;;;4.90;2.40;;;;;;;;;;5066205;28;20812;-72
2022/07/16 06:46:03;;;;;;;4.72;2.90;;;;;;;;;;5066135;28;20767;-72
2022/07/16 06:48:33;;;;;;;3.80;2.50;;;;;;;;;;5067578;28;20783;-72
2022/07/16 06:51:01;;;;;;;3.28;2.22;;;;;;;;;;5070115;28;20580;-72
2022/07/16 06:53:28;;;;;;;3.72;2.45;;;;;;;;;;5069496;28;20403;-72
2022/07/16 06:55:55;;;;;;;3.20;2.30;;;;;;;;;;5061146;23;20417;-76
2022/07/16 06:58:22;;;;;;;3.78;2.50;;;;;;;;;;5050045;28;20456;-75
2022/07/16 07:00:49;;;;;;;6.28;2.90;;;;;;;;;;5051073;28;20409;-75
2022/07/16 07:03:16;;;;;;;5.10;2.83;;;;;;;;;;5052137;28;20467;-74
2022/07/16 07:05:45;;;;;;;4.53;2.47;;;;;;;;;;5051939;28;20899;-75
2022/07/16 07:08:12;;;;;;;3.33;2.63;;;;;;;;;;5052046;28;20497;-76
2022/07/16 07:10:39;;;;;;;4.83;2.90;;;;;;;;;;5051160;28;20429;-76
2022/07/16 07:13:06;;;;;;;3.55;2.72;;;;;;;;;;5051916;28;20421;-76
2022/07/16 07:15:33;;;;;;;4.50;3.10;;;;;;;;;;5052293;28;20496;-76
2022/07/16 07:18:00;;;;;;;4.25;3.30;;;;;;;;;;5052170;28;20437;-75
2022/07/16 07:20:27;;;;;;;5.60;3.60;;;;;;;;;;5051179;28;20757;-75
2022/07/16 07:22:56;;;;;;;4.55;3.30;;;;;;;;;;5051882;28;20446;-75
2022/07/16 07:25:23;;;;;;;4.53;3.45;;;;;;;;;;5052111;28;20439;-76
2022/07/16 07:27:50;;;;;;;4.32;3.45;;;;;;;;;;5052612;28;20816;-75
2022/07/16 07:30:17;;;;;;;4.60;3.80;;;;;;;;;;5061411;28;20432;-75
2022/07/16 07:32:44;;;;;;;5.40;4.00;;;;;;;;;;5056236;28;20428;-76
2022/07/16 07:35:12;;;;;;;5.47;4.05;;;;;;;;;;5052561;28;20405;-76
2022/07/16 07:37:39;;;;;;;5.22;3.88;;;;;;;;;;5052749;28;20427;-76
2022/07/16 07:40:08;;;;;;;5.63;5.00;;;;;;;;;;5051094;28;20508;-75
2022/07/16 07:42:35;;;;;;;5.05;4.45;;;;;;;;;;5057547;28;20428;-75
2022/07/16 07:45:03;;;;;;;5.53;4.20;;;;;;;;;;5059903;28;20413;-75
2022/07/16 07:47:30;;;;;;;6.60;4.90;;;;;;;;;;5059142;28;20497;-74
2022/07/16 07:49:57;;;;;;;5.82;4.10;;;;;;;;;;5053037;28;20409;-75
2022/07/16 07:52:24;;;;;;;4.43;3.45;;;;;;;;;;5055040;28;20485;-75
2022/07/16 07:54:51;;;;;;;6.15;4.07;;;;;;;;;;5042720;28;20415;-74
2022/07/16 07:57:20;;;;;;;5.05;4.50;;;;;;;;;;5037619;28;20419;-75
2022/07/16 07:59:48;;;;;;;5.05;4.00;;;;;;;;;;5033368;28;20418;-74
2022/07/16 08:02:15;;;;;;;6.50;4.50;;;;;;;;;;5035272;28;20422;-74
2022/07/16 08:04:42;;;;;;;6.07;4.80;;;;;;;;;;5037013;28;20461;-75
2022/07/16 08:07:09;;;;;;;4.45;4.05;;;;;;;;;;5033973;28;20423;-76
2022/07/16 08:09:37;;;;;;;5.20;3.83;;;;;;;;;;5034144;28;20419;-74
2022/07/16 08:12:04;;;;;;;4.70;4.10;;;;;;;;;;5034529;28;20504;-76
2022/07/16 08:14:32;;;;;;;5.60;4.20;;;;;;;;;;5032854;28;20429;-76
2022/07/16 08:16:59;;;;;;;4.40;4.10;;;;;;;;;;5033192;28;20498;-75
2022/07/16 08:19:27;;;;;;;5.60;4.80;;;;;;;;;;5034363;28;20433;-74
2022/07/16 08:21:54;;;;;;;5.40;4.45;;;;;;;;;;5033546;28;20415;-76
2022/07/16 08:27:06;;;;;;;4.93;4.20;;;;;;;;;;5031175;28;20406;-75
2022/07/16 08:29:35;;;;;;;4.95;4.55;;;;;;;;;;5030728;28;20834;-76
2022/07/16 08:32:02;;;;;;;4.80;4.40;;;;;;;;;;5030659;28;20438;-76
2022/07/16 08:34:29;;;;;;;5.55;5.05;;;;;;;;;;5031238;28;20423;-74
2022/07/16 08:36:56;;;;;;;5.13;4.57;;;;;;;;;;5031704;28;20418;-74
2022/07/16 08:39:23;;;;;;;4.43;4.03;;;;;;;;;;5030272;28;20871;-73
2022/07/16 08:41:51;;;;;;;4.90;4.10;;;;;;;;;;5030545;28;20423;-74
2022/07/16 08:44:18;;;;;;;4.80;4.40;;;;;;;;;;5031952;28;20476;-75
2022/07/16 08:46:47;;;;;;;5.35;4.15;;;;;;;;;;5032082;28;20411;-74
2022/07/16 08:49:14;;;;;;;4.78;4.38;;;;;;;;;;5037808;28;20433;-73
2022/07/16 08:51:42;;;;;;;4.70;4.30;;;;;;;;;;5030636;28;20442;-76
2022/07/16 08:54:11;;;;;;;3.73;3.43;;;;;;;;;;5030679;28;20431;-74
2022/07/16 08:56:38;;;;;;;3.80;3.50;;;;;;;;;;5030199;28;20427;-77
2022/07/16 08:59:06;;;;;;;3.92;3.63;;;;;;;;;;5031237;28;20423;-75
2022/07/16 09:01:33;;;;;;;3.90;3.60;;;;;;;;;;5030064;28;20411;-76
2022/07/16 09:04:02;;;;;;;4.03;3.72;;;;;;;;;;5030387;28;20415;-76
2022/07/16 09:06:30;;;;;;;3.13;2.83;;;;;;;;;;5029836;28;20440;-75
2022/07/16 09:08:57;;;;;;;3.60;3.10;;;;;;;;;;5030433;28;20423;-75
2022/07/16 09:11:25;;;;;;;5.93;4.75;;;;;;;;;;5028410;28;20748;-75
2022/07/16 09:14:02;;;;;;;6.20;5.60;;;;;;;;;;5030195;28;20426;-76
2022/07/16 09:16:30;;;;;;;5.85;5.43;;;;;;;;;;5029911;28;20426;-76
2022/07/16 09:19:06;;;;;;;5.63;5.20;;;;;;;;;;5029703;28;20518;-75
2022/07/16 09:21:33;;;;;;;5.40;5.00;;;;;;;;;;5029930;28;20461;-75
2022/07/16 09:24:00;;;;;;;5.60;5.20;;;;;;;;;;5029325;28;20414;-75
2022/07/16 09:26:29;;;;;;;5.50;5.10;;;;;;;;;;5028866;28;20423;-74
2022/07/16 09:28:56;;;;;;;4.38;3.97;;;;;;;;;;5029406;28;20476;-75
2022/07/16 09:31:34;;;;;;;4.65;4.22;;;;;;;;;;5029152;28;20442;-75
2022/07/16 09:34:02;;;;;;;5.20;4.32;;;;;;;;;;5029675;28;20418;-74
2022/07/16 09:36:30;;;;;;;4.30;3.80;;;;;;;;;;5031046;28;20427;-74
2022/07/16 09:38:57;;;;;;;4.40;4.00;;;;;;;;;;5029899;28;20419;-77
2022/07/16 09:41:25;;;;;;;4.47;4.10;;;;;;;;;;5029238;28;20407;-75
2022/07/16 09:43:52;;;;;;;4.47;4.18;;;;;;;;;;5029722;28;20419;-76
2022/07/16 09:46:20;;;;;;;4.57;4.18;;;;;;;;;;5029371;28;20419;-75
2022/07/16 09:48:48;;;;;;;4.25;3.85;;;;;;;;;;5029567;28;20429;-75
2022/07/16 09:51:16;;;;;;;4.20;3.80;;;;;;;;;;5028965;28;20796;-74
2022/07/16 09:53:46;;;;;;;4.38;3.60;;;;;;;;;;5029197;28;20445;-74
2022/07/16 09:56:15;;;;;;;3.70;3.40;;;;;;;;;;5028471;28;20853;-75
2022/07/16 09:58:46;;;;;;;3.40;3.10;;;;;;;;;;5029369;28;20422;-73
2022/07/16 10:01:14;;;;;;;3.80;3.40;;;;;;;;;;5029191;28;20481;-76
2022/07/16 10:03:41;;;;;;;3.10;2.90;;;;;;;;;;5028900;28;20434;-74
2022/07/16 10:06:08;;;;;;;3.13;2.83;;;;;;;;;;5029067;28;20839;-76
2022/07/16 10:08:36;;;;;;;2.58;2.20;;;;;;;;;;5029222;28;20497;-74
2022/07/16 10:11:05;;;;;;;2.10;1.90;;;;;;;;;;5028610;28;20434;-75
2022/07/16 10:13:33;;;;;;;3.10;1.98;;;;;;;;;;5028845;28;20783;-74
2022/07/16 10:16:01;;;;;;;3.22;2.00;;;;;;;;;;5029455;28;20426;-74
2022/07/16 10:18:35;;;;;;;2.33;2.13;;;;;;;;;;5029539;28;20430;-76
2022/07/16 10:21:04;;;;;;;2.90;1.85;;;;;;;;;;5029135;28;20419;-75
2022/07/16 10:23:32;;;;;;;2.63;1.30;;;;;;;;;;5029151;28;20415;-75
2022/07/16 10:25:59;;;;;;;1.50;1.20;;;;;;;;;;5028277;28;20414;-76
2022/07/16 10:28:41;;;;;;;2.20;1.60;;;;;;;;;;5029162;28;20480;-75
2022/07/16 10:31:27;;;;;;;2.03;1.60;;;;;;;;;;5025872;28;20427;-75
2022/07/16 10:34:09;;;;;;;2.50;1.83;;;;;;;;;;5028613;28;20422;-75
2022/07/16 10:36:46;;;;;;;1.10;1.00;;;;;;;;;;5028245;28;20417;-75
2022/07/16 10:39:15;;;;;;;1.67;1.10;;;;;;;;;;5028086;28;20422;-73
2022/07/16 10:41:48;;;;;;;2.50;2.07;;;;;;;;;;5038095;28;20439;-75
2022/07/16 10:44:16;;;;;;;1.70;1.60;;;;;;;;;;5044886;28;20481;-74
2022/07/16 10:46:52;;;;;;;2.20;1.20;;;;;;;;;;5047277;28;20828;-74
2022/07/16 10:49:20;;;;;;;1.80;1.20;;;;;;;;;;5043526;28;20492;-74
2022/07/16 10:51:58;;;;;;;2.10;1.00;;;;;;;;;;5036449;28;20614;-75
2022/07/16 10:54:25;;;;;;;2.38;1.08;;;;;;;;;;5035214;28;20427;-74
2022/07/16 10:56:53;;;;;;;2.08;1.30;;;;;;;;;;5037538;28;20760;-74
2022/07/16 10:59:21;;;;;;;2.22;1.10;;;;;;;;;;5033922;28;20455;-74
2022/07/16 11:01:51;;;;;;;1.60;1.00;;;;;;;;;;5037438;28;20403;-72
2022/07/16 11:04:26;;;;;;;1.10;1.00;;;;;;;;;;5041954;28;20454;-72
2022/07/16 11:06:54;;;;;;;1.77;0.97;;;;;;;;;;5030057;28;20415;-74
2022/07/16 11:09:26;;;;;;;1.35;0.80;;;;;;;;;;5028650;28;20450;-76
2022/07/16 11:11:53;;;;;;;2.60;0.98;;;;;;;;;;5028409;28;20434;-75
2022/07/16 11:14:20;;;;;;;2.30;0.88;;;;;;;;;;5028185;28;20461;-76
2022/07/16 11:16:51;;;;;;;1.00;0.90;;;;;;;;;;5028264;28;20514;-76
2022/07/16 11:19:18;;;;;;;1.50;1.00;;;;;;;;;;5028242;28;20415;-76
2022/07/16 11:21:55;;;;;;;1.10;0.88;;;;;;;;;;5028014;28;20419;-74
2022/07/16 11:24:23;;;;;;;3.00;0.80;;;;;;;;;;5026909;28;20419;-76
2022/07/16 11:26:52;;;;;;;1.70;1.00;;;;;;;;;;5028012;28;20414;-75
2022/07/16 11:29:20;;;;;;;1.83;0.95;;;;;;;;;;5027996;28;20418;-75
2022/07/16 11:31:48;;;;;;;2.28;0.90;;;;;;;;;;5027430;28;20838;-74
2022/07/16 11:34:18;;;;;;;2.03;1.00;;;;;;;;;;5028411;28;20737;-76
2022/07/16 11:36:46;;;;;;;1.80;1.00;;;;;;;;;;5031668;28;20610;-75
2022/07/16 11:39:14;;;;;;;2.10;1.10;;;;;;;;;;5031491;28;20430;-75
2022/07/16 11:41:43;;;;;;;1.10;1.00;;;;;;;;;;5031233;28;20506;-76
2022/07/16 11:44:12;;;;;;;1.92;0.90;;;;;;;;;;5031432;28;20431;-75
2022/07/16 11:46:43;;;;;;;2.92;0.88;;;;;;;;;;5031901;28;20417;-75
2022/07/16 11:49:10;;;;;;;1.40;1.10;;;;;;;;;;5033351;28;20865;-74
2022/07/16 11:51:39;;;;;;;1.20;0.80;;;;;;;;;;5032816;28;20435;-75
2022/07/16 11:54:06;;;;;;;1.90;1.10;;;;;;;;;;5031490;28;20447;-74
2022/07/16 11:56:34;;;;;;;2.80;1.50;;;;;;;;;;5030834;28;20418;-73
2022/07/16 11:59:01;;;;;;;2.60;1.20;;;;;;;;;;5031268;28;20802;-73
2022/07/16 12:01:33;;;;;;;2.80;1.30;;;;;;;;;;5032103;28;20418;-75
2022/07/16 12:04:00;;;;;;;1.50;1.20;;;;;;;;;;5032184;28;20440;-74
2022/07/16 12:06:27;;;;;;;2.15;1.20;;;;;;;;;;5031022;28;20423;-75
2022/07/16 12:08:55;;;;;;;2.00;0.93;;;;;;;;;;5031611;28;20895;-75
2022/07/16 12:11:30;;;;;;;2.80;1.50;;;;;;;;;;5030784;28;20418;-74
2022/07/16 12:13:58;;;;;;;1.70;1.50;;;;;;;;;;5031614;28;20423;-76
2022/07/16 12:16:25;;;;;;;1.65;1.00;;;;;;;;;;5032259;28;20415;-73
2022/07/16 12:19:07;;;;;;;1.50;1.40;;;;;;;;;;5033001;28;20437;-74
2022/07/16 12:21:37;;;;;;;1.80;1.23;;;;;;;;;;5031825;28;20498;-73
2022/07/16 12:24:04;;;;;;;2.20;1.38;;;;;;;;;;5031559;28;20419;-74
2022/07/16 12:26:33;;;;;;;2.10;1.45;;;;;;;;;;5031667;28;20418;-73
2022/07/16 12:29:00;;;;;;;2.03;1.00;;;;;;;;;;5031811;28;20806;-73
2022/07/16 12:31:28;;;;;;;2.53;1.20;;;;;;;;;;5031158;28;21121;-76
2022/07/16 12:33:56;;;;;;;2.30;1.10;;;;;;;;;;5031482;28;20415;-76
2022/07/16 12:36:29;;;;;;;2.30;0.98;;;;;;;;;;5033202;28;20415;-75
2022/07/16 12:38:58;;;;;;;1.38;1.15;;;;;;;;;;5032156;28;20419;-73
2022/07/16 12:41:26;;;;;;;1.98;1.40;;;;;;;;;;5031295;28;20434;-75
2022/07/16 12:43:54;;;;;;;1.10;1.00;;;;;;;;;;5031548;28;20488;-74
2022/07/16 12:46:22;;;;;;;2.80;1.15;;;;;;;;;;5031863;28;20467;-75
2022/07/16 12:48:51;;;;;;;2.90;1.20;;;;;;;;;;5033211;28;20422;-76
2022/07/16 12:51:20;;;;;;;2.00;1.30;;;;;;;;;;5033442;28;20415;-76
2022/07/16 12:53:48;;;;;;;1.90;1.20;;;;;;;;;;5032034;28;20439;-75
2022/07/16 12:59:00;;;;;;;1.20;1.10;;;;;;;;;;5068314;23;20959;-75
2022/07/16 13:01:29;;;;;;;2.40;1.08;;;;;;;;;;5047675;28;20406;-75
2022/07/16 13:03:56;;;;;;;1.45;1.10;;;;;;;;;;5048121;28;20810;-76
2022/07/16 13:06:24;;;;;;;1.58;1.02;;;;;;;;;;5048177;28;20510;-75
2022/07/16 13:08:53;;;;;;;1.40;0.80;;;;;;;;;;5047750;28;20417;-73
2022/07/16 13:11:21;;;;;;;2.50;1.20;;;;;;;;;;5047463;28;20440;-74
2022/07/16 13:13:48;;;;;;;1.60;1.10;;;;;;;;;;5047620;28;20433;-75
2022/07/16 13:16:17;;;;;;;2.30;1.45;;;;;;;;;;5047428;28;20535;-75
2022/07/16 13:18:44;;;;;;;1.33;1.00;;;;;;;;;;5047564;28;20436;-75
2022/07/16 13:21:12;;;;;;;1.23;0.80;;;;;;;;;;5047211;28;20766;-75
2022/07/16 13:23:39;;;;;;;1.98;1.00;;;;;;;;;;5048138;28;20996;-75
2022/07/16 13:26:07;;;;;;;1.92;1.00;;;;;;;;;;5047542;28;20413;-75
2022/07/16 13:28:34;;;;;;;1.15;0.90;;;;;;;;;;5047807;28;20737;-75
2022/07/16 13:31:02;;;;;;;2.00;1.10;;;;;;;;;;5047362;28;20413;-75
2022/07/16 13:33:29;;;;;;;1.98;1.33;;;;;;;;;;5047519;28;20538;-75
2022/07/16 13:35:57;;;;;;;2.10;1.10;;;;;;;;;;5047270;28;20428;-75
2022/07/16 13:38:25;;;;;;;1.70;1.10;;;;;;;;;;5047746;28;20413;-75
2022/07/16 13:40:52;;;;;;;1.95;1.15;;;;;;;;;;5046245;28;20448;-74
2022/07/16 13:43:21;;;;;;;1.40;0.90;;;;;;;;;;5047395;28;20436;-75
2022/07/16 13:45:48;;;;;;;1.73;0.90;;;;;;;;;;5047036;28;20885;-74
2022/07/16 13:48:16;;;;;;;1.33;1.05;;;;;;;;;;5047076;28;20428;-75
2022/07/16 13:50:43;;;;;;;1.58;0.85;;;;;;;;;;5046953;28;20932;-75
2022/07/16 13:53:11;;;;;;;1.50;1.10;;;;;;;;;;5047306;28;20848;-75
2022/07/16 13:55:38;;;;;;;2.28;1.23;;;;;;;;;;5046196;28;20497;-75
2022/07/16 13:58:13;;;;;;;1.63;0.90;;;;;;;;;;5046504;28;20425;-74
2022/07/16 14:00:42;;;;;;;1.20;0.80;;;;;;;;;;5046329;28;20507;-74
2022/07/16 14:03:09;;;;;;;1.50;0.90;;;;;;;;;;5047580;28;20416;-73
2022/07/16 14:05:36;;;;;;;1.40;1.00;;;;;;;;;;5047188;28;20892;-74
2022/07/16 14:08:03;;;;;;;1.58;0.90;;;;;;;;;;5047261;28;20413;-74
2022/07/16 14:10:30;;;;;;;1.30;0.98;;;;;;;;;;5045905;28;20909;-73
2022/07/16 14:12:58;;;;;;;1.00;0.80;;;;;;;;;;5047079;28;20954;-74
2022/07/16 14:15:29;;;;;;;2.00;0.80;;;;;;;;;;5046494;28;20834;-74
2022/07/16 14:17:57;;;;;;;2.50;1.30;;;;;;;;;;5046444;28;20432;-74
2022/07/16 14:20:25;;;;;;;1.40;0.77;;;;;;;;;;5046301;28;20742;-73
2022/07/16 14:22:52;;;;;;;1.52;0.82;;;;;;;;;;5046781;28;20417;-74
2022/07/16 14:25:20;;;;;;;1.98;1.20;;;;;;;;;;5046227;28;20516;-74
2022/07/16 14:27:47;;;;;;;1.90;1.00;;;;;;;;;;5046517;28;20417;-74
2022/07/16 14:30:14;;;;;;;2.17;1.20;;;;;;;;;;5045762;28;20409;-75
2022/07/16 14:32:42;;;;;;;1.40;0.98;;;;;;;;;;5046322;28;20444;-75
2022/07/16 14:35:11;;;;;;;2.30;0.98;;;;;;;;;;5046265;28;20436;-75
2022/07/16 14:37:38;;;;;;;1.92;0.70;;;;;;;;;;5046629;28;20417;-74
2022/07/16 14:40:07;;;;;;;3.15;0.90;;;;;;;;;;5045729;28;20416;-75
2022/07/16 14:42:36;;;;;;;1.33;0.93;;;;;;;;;;5046664;28;20416;-75
2022/07/16 14:45:04;;;;;;;2.30;0.90;;;;;;;;;;5046026;28;20525;-75
2022/07/16 14:47:31;;;;;;;1.60;0.90;;;;;;;;;;5046548;28;20428;-75
2022/07/16 14:49:58;;;;;;;2.20;0.80;;;;;;;;;;5046009;28;20429;-75
2022/07/16 14:52:27;;;;;;;0.90;0.60;;;;;;;;;;5046068;28;20452;-75
2022/07/16 14:54:54;;;;;;;1.25;0.80;;;;;;;;;;5045522;28;20810;-76
2022/07/16 14:57:21;;;;;;;2.03;0.98;;;;;;;;;;5046329;28;20422;-75